Time;durP1;ratioP1;P1;durP2;ratioP2;P2;SDS_P1;SDS_P2;PMS_P1;PMS_P2;Temp;Humidity;BMP_temperature;BMP_pressure;BME280_temperature;BME280_humidity;BME280_pressure;Samples;Min_cycle;Max_cycle;Signal;HPM_P1;HPM_P2
2022/10/13 00:01:19;;;;;;;15.23;9.20;;;9.00;99.90;;;;;;5063324;28;20036;-75
2022/10/13 00:03:46;;;;;;;25.35;9.50;;;9.00;99.90;;;;;;5063130;28;20397;-76
2022/10/13 00:06:13;;;;;;;20.98;8.88;;;9.00;99.90;;;;;;5064011;28;20029;-76
2022/10/13 00:08:40;;;;;;;18.55;8.82;;;8.90;99.90;;;;;;5062573;28;20051;-76
2022/10/13 00:11:27;;;;;;;23.70;8.65;;;8.90;99.90;;;;;;5045148;28;20024;-76
2022/10/13 00:13:56;;;;;;;18.15;9.55;;;8.90;99.90;;;;;;5063750;28;20032;-77
2022/10/13 00:16:22;;;;;;;15.05;8.52;;;8.90;99.90;;;;;;5063501;28;20017;-77
2022/10/13 00:18:49;;;;;;;22.08;9.98;;;8.90;99.90;;;;;;5063192;28;20020;-76
2022/10/13 00:21:17;;;;;;;16.58;9.20;;;9.00;99.90;;;;;;5061465;28;20095;-76
2022/10/13 00:23:43;;;;;;;18.00;8.75;;;9.00;99.90;;;;;;5061738;28;20028;-76
2022/10/13 00:26:12;;;;;;;18.08;8.88;;;9.00;99.90;;;;;;5063520;28;20037;-77
2022/10/13 00:28:38;;;;;;;17.35;9.10;;;9.00;99.90;;;;;;5045412;28;20020;-76
2022/10/13 00:31:24;;;;;;;19.17;8.75;;;9.00;99.90;;;;;;5062648;28;20032;-76
2022/10/13 00:33:51;;;;;;;19.52;8.82;;;9.00;99.90;;;;;;5063353;28;20031;-76
2022/10/13 00:36:18;;;;;;;23.35;9.18;;;8.90;99.90;;;;;;5062847;28;20017;-76
2022/10/13 00:38:44;;;;;;;22.10;9.13;;;8.90;99.90;;;;;;5063029;28;20395;-77
2022/10/13 00:41:11;;;;;;;17.02;8.70;;;8.90;99.90;;;;;;5063323;28;20046;-76
2022/10/13 00:44:05;;;;;;;17.75;9.00;;;8.90;99.90;;;;;;5062596;28;20053;-76
2022/10/13 00:46:33;;;;;;;28.10;9.25;;;8.90;99.90;;;;;;5062722;28;20033;-77
2022/10/13 00:49:07;;;;;;;20.83;8.23;;;8.90;99.90;;;;;;5062994;28;20058;-76
2022/10/13 00:51:38;;;;;;;16.80;8.48;;;8.90;99.90;;;;;;5062676;28;20036;-76
2022/10/13 00:54:06;;;;;;;18.77;8.52;;;8.90;99.90;;;;;;5062290;28;20033;-77
2022/10/13 00:56:32;;;;;;;19.60;8.55;;;8.90;99.90;;;;;;5062834;28;20051;-77
2022/10/13 00:59:00;;;;;;;20.55;8.73;;;9.00;99.90;;;;;;5062476;28;20040;-77
2022/10/13 01:01:25;;;;;;;18.83;8.05;;;9.00;99.90;;;;;;5061731;28;20400;-76
2022/10/13 01:03:51;;;;;;;20.23;8.40;;;9.00;99.90;;;;;;5062522;28;20033;-75
2022/10/13 01:06:18;;;;;;;15.20;8.05;;;9.00;99.90;;;;;;5060953;28;20032;-76
2022/10/13 01:08:44;;;;;;;13.48;8.05;;;9.00;99.90;;;;;;5061871;28;20024;-76
2022/10/13 01:11:33;;;;;;;17.35;8.27;;;9.00;99.90;;;;;;5044716;28;20036;-76
2022/10/13 01:14:05;;;;;;;14.93;8.20;;;8.90;99.90;;;;;;5062283;28;20031;-76
2022/10/13 01:16:39;;;;;;;20.10;7.95;;;8.90;99.90;;;;;;5062608;28;20025;-77
2022/10/13 01:19:26;;;;;;;21.48;8.63;;;8.90;99.90;;;;;;5062180;28;20047;-76
2022/10/13 01:22:20;;;;;;;19.45;8.60;;;8.90;99.90;;;;;;5062253;28;20037;-76
2022/10/13 01:25:07;;;;;;;14.95;7.72;;;8.90;99.90;;;;;;5017041;28;20025;-76
2022/10/13 01:27:54;;;;;;;16.27;7.82;;;9.00;99.90;;;;;;5061918;28;20059;-76
2022/10/13 01:30:21;;;;;;;14.45;7.82;;;9.00;99.90;;;;;;5061738;28;20074;-75
2022/10/13 01:33:01;;;;;;;15.07;7.65;;;9.00;99.90;;;;;;5062144;28;20017;-76
2022/10/13 01:35:41;;;;;;;18.45;8.18;;;9.10;99.90;;;;;;5061873;28;20020;-76
2022/10/13 01:38:32;;;;;;;15.60;7.70;;;9.10;99.90;;;;;;5062005;28;21030;-76
2022/10/13 01:41:24;;;;;;;22.00;7.63;;;9.10;99.90;;;;;;5061511;28;20043;-75
2022/10/13 01:44:01;;;;;;;16.25;7.63;;;9.10;99.90;;;;;;5061596;28;20044;-77
2022/10/13 01:46:32;;;;;;;18.63;7.90;;;9.10;99.90;;;;;;5062197;28;20028;-76
2022/10/13 01:49:00;;;;;;;17.10;7.47;;;9.10;99.90;;;;;;5062767;28;20116;-76
2022/10/13 01:51:33;;;;;;;19.27;7.95;;;9.20;99.90;;;;;;5063994;28;20060;-75
2022/10/13 01:53:59;;;;;;;14.57;7.60;;;9.10;99.90;;;;;;5060499;28;20472;-76
2022/10/13 01:56:31;;;;;;;14.25;7.35;;;9.10;99.90;;;;;;5061454;28;20036;-75
2022/10/13 01:59:06;;;;;;;16.58;8.00;;;9.10;99.90;;;;;;5061863;28;20074;-75
2022/10/13 02:01:55;;;;;;;15.43;8.10;;;9.10;99.90;;;;;;5061256;28;20059;-76
2022/10/13 02:04:28;;;;;;;21.15;7.22;;;9.10;99.90;;;;;;5061380;28;20020;-77
2022/10/13 02:07:00;;;;;;;14.50;6.57;;;9.10;99.90;;;;;;5061576;28;20086;-77
2022/10/13 02:09:31;;;;;;;14.35;6.93;;;9.10;99.90;;;;;;5061666;28;20021;-76
2022/10/13 02:12:18;;;;;;;19.80;6.57;;;9.10;99.90;;;;;;5061830;28;20037;-76
2022/10/13 02:14:46;;;;;;;13.18;6.60;;;9.10;99.90;;;;;;5061211;28;20116;-75
2022/10/13 02:17:13;;;;;;;23.33;6.93;;;9.10;99.90;;;;;;5043533;28;20119;-76
2022/10/13 02:19:42;;;;;;;17.58;6.75;;;9.10;99.90;;;;;;5060905;28;20064;-76
2022/10/13 02:22:12;;;;;;;13.43;7.07;;;9.10;99.90;;;;;;5061513;28;20052;-77
2022/10/13 02:24:37;;;;;;;16.05;7.47;;;9.10;99.90;;;;;;5061165;28;20033;-76
2022/10/13 02:27:06;;;;;;;14.75;6.82;;;9.10;99.90;;;;;;5043799;28;20025;-77
2022/10/13 02:29:33;;;;;;;16.80;6.97;;;9.10;99.90;;;;;;5061109;28;20017;-76
2022/10/13 02:31:59;;;;;;;17.05;7.20;;;9.10;99.90;;;;;;5061223;28;20091;-76
2022/10/13 02:34:24;;;;;;;13.82;6.78;;;9.10;99.90;;;;;;5061758;28;20021;-77
2022/10/13 02:36:50;;;;;;;13.02;6.38;;;9.20;99.90;;;;;;5061444;28;20029;-76
2022/10/13 02:39:16;;;;;;;14.20;6.75;;;9.10;99.90;;;;;;5060070;28;20048;-76
2022/10/13 02:41:42;;;;;;;14.07;7.20;;;9.00;99.90;;;;;;5061601;28;20009;-75
2022/10/13 02:44:08;;;;;;;17.33;7.10;;;9.10;99.90;;;;;;5039905;28;20056;-76
2022/10/13 02:46:43;;;;;;;11.25;6.47;;;9.00;99.90;;;;;;5033664;28;20374;-76
2022/10/13 02:49:09;;;;;;;14.30;6.25;;;9.00;99.90;;;;;;5051379;28;20028;-76
2022/10/13 02:51:35;;;;;;;18.17;7.05;;;9.00;99.90;;;;;;5033165;28;20152;-77
2022/10/13 02:54:01;;;;;;;14.68;6.82;;;9.00;99.90;;;;;;5050851;28;20066;-76
2022/10/13 02:56:26;;;;;;;19.83;6.72;;;9.00;99.90;;;;;;5033765;28;20025;-76
2022/10/13 02:58:52;;;;;;;18.55;7.72;;;9.00;99.90;;;;;;5051017;28;20025;-77
2022/10/13 03:01:18;;;;;;;17.05;7.65;;;9.00;99.90;;;;;;5041459;28;20029;-75
2022/10/13 03:03:43;;;;;;;13.38;6.63;;;9.00;99.90;;;;;;5050847;28;20124;-76
2022/10/13 03:06:09;;;;;;;23.30;7.40;;;9.00;99.90;;;;;;5033455;28;20021;-78
2022/10/13 03:08:38;;;;;;;13.70;7.20;;;9.00;99.90;;;;;;5051765;28;20025;-77
2022/10/13 03:11:04;;;;;;;17.13;6.90;;;8.90;99.90;;;;;;5050851;28;20032;-77
2022/10/13 03:13:30;;;;;;;19.00;7.50;;;9.00;99.90;;;;;;5050750;28;20026;-77
2022/10/13 03:15:56;;;;;;;24.40;7.50;;;9.00;99.90;;;;;;5041761;28;20045;-76
2022/10/13 03:18:21;;;;;;;24.10;7.78;;;9.00;99.90;;;;;;5048714;28;20029;-76
2022/10/13 03:21:02;;;;;;;17.27;7.00;;;9.00;99.90;;;;;;5050929;28;20021;-76
2022/10/13 03:23:28;;;;;;;12.43;6.32;;;9.10;99.90;;;;;;5032940;28;20022;-76
2022/10/13 03:25:54;;;;;;;16.92;8.50;;;9.10;99.90;;;;;;5032472;28;20029;-78
2022/10/13 03:28:23;;;;;;;16.40;6.80;;;9.10;99.90;;;;;;5051297;28;20021;-78
2022/10/13 03:30:49;;;;;;;19.25;7.10;;;9.00;99.90;;;;;;5052918;28;20028;-76
2022/10/13 03:33:15;;;;;;;17.88;7.47;;;9.10;99.90;;;;;;5053409;28;20018;-76
2022/10/13 03:35:41;;;;;;;18.50;7.13;;;9.10;99.90;;;;;;5054401;28;20032;-77
2022/10/13 03:38:14;;;;;;;19.02;7.55;;;9.00;99.90;;;;;;5044805;28;20036;-77
2022/10/13 03:40:41;;;;;;;21.67;8.10;;;9.10;99.90;;;;;;5035429;28;20103;-76
2022/10/13 03:43:07;;;;;;;26.30;8.10;;;9.00;99.90;;;;;;5054191;28;20025;-76
2022/10/13 03:45:33;;;;;;;21.75;9.80;;;9.10;99.90;;;;;;5062115;28;20412;-75
2022/10/13 03:47:58;;;;;;;18.23;9.27;;;9.10;99.90;;;;;;5064328;28;20039;-75
2022/10/13 03:50:24;;;;;;;15.32;7.60;;;9.00;99.90;;;;;;5046336;28;20070;-75
2022/10/13 03:52:49;;;;;;;15.68;7.53;;;9.00;99.90;;;;;;5063794;28;20053;-75
2022/10/13 03:55:15;;;;;;;22.02;8.55;;;9.10;99.90;;;;;;5054189;28;20041;-76
2022/10/13 03:57:41;;;;;;;14.77;7.70;;;9.10;99.90;;;;;;5064160;28;20469;-76
2022/10/13 04:00:09;;;;;;;16.60;8.13;;;9.10;99.90;;;;;;5064631;28;20558;-77
2022/10/13 04:02:35;;;;;;;18.55;7.00;;;9.00;99.90;;;;;;5045870;28;20384;-77
2022/10/13 04:05:01;;;;;;;22.08;8.43;;;9.00;99.90;;;;;;5064183;28;20032;-75
2022/10/13 04:07:26;;;;;;;16.52;8.10;;;9.10;99.90;;;;;;5069864;28;20021;-75
2022/10/13 04:09:52;;;;;;;18.80;8.73;;;9.10;99.90;;;;;;5063735;28;20126;-76
2022/10/13 04:12:18;;;;;;;21.08;7.95;;;9.00;99.90;;;;;;5063825;28;20023;-77
2022/10/13 04:14:43;;;;;;;17.23;8.60;;;9.00;99.90;;;;;;5063568;28;20496;-75
2022/10/13 04:17:09;;;;;;;16.13;7.95;;;9.00;99.90;;;;;;5045944;28;20096;-76
2022/10/13 04:19:35;;;;;;;16.40;7.65;;;9.00;99.90;;;;;;5045156;28;20032;-77
2022/10/13 04:22:01;;;;;;;20.73;7.72;;;9.00;99.90;;;;;;5063529;28;20025;-77
2022/10/13 04:24:26;;;;;;;16.98;8.20;;;9.10;99.90;;;;;;5063746;28;20025;-77
2022/10/13 04:26:52;;;;;;;19.23;7.80;;;9.00;99.90;;;;;;5063531;28;20036;-76
2022/10/13 04:29:18;;;;;;;21.38;8.63;;;9.00;99.90;;;;;;5054006;28;20033;-75
2022/10/13 04:31:43;;;;;;;16.30;8.32;;;9.00;99.90;;;;;;5061592;28;20035;-76
2022/10/13 04:34:11;;;;;;;16.13;7.68;;;9.00;99.90;;;;;;5045295;28;20037;-75
2022/10/13 04:36:37;;;;;;;16.85;7.97;;;9.00;99.90;;;;;;5062904;28;20033;-75
2022/10/13 04:39:03;;;;;;;19.92;9.00;;;9.00;99.90;;;;;;5063466;28;20045;-75
2022/10/13 04:41:28;;;;;;;20.10;8.45;;;9.00;99.90;;;;;;5044995;28;20479;-74
2022/10/13 04:43:54;;;;;;;20.45;8.88;;;9.00;99.90;;;;;;5043485;28;20065;-76
2022/10/13 04:46:25;;;;;;;16.80;8.40;;;8.80;99.90;;;;;;5053333;28;20435;-75
2022/10/13 04:48:51;;;;;;;16.77;8.02;;;8.90;99.90;;;;;;5061356;28;20032;-76
2022/10/13 04:51:20;;;;;;;13.70;8.00;;;8.90;99.90;;;;;;5063132;28;20096;-75
2022/10/13 04:53:46;;;;;;;25.35;9.40;;;9.00;99.90;;;;;;5062742;28;20016;-76
2022/10/13 04:56:16;;;;;;;21.45;9.15;;;9.00;99.90;;;;;;5044589;28;20028;-76
2022/10/13 04:58:43;;;;;;;21.13;9.82;;;8.90;99.90;;;;;;5061321;28;20025;-77
2022/10/13 05:01:13;;;;;;;15.77;8.40;;;9.00;99.90;;;;;;5062009;28;20078;-76
2022/10/13 05:03:38;;;;;;;21.80;9.02;;;9.00;99.90;;;;;;5061929;28;20088;-77
2022/10/13 05:06:04;;;;;;;21.13;8.13;;;9.10;99.90;;;;;;5062943;28;20016;-76
2022/10/13 05:08:31;;;;;;;25.38;9.27;;;9.10;99.90;;;;;;5061578;28;20047;-77
2022/10/13 05:11:01;;;;;;;31.17;9.73;;;9.10;99.90;;;;;;5053096;28;20366;-77
2022/10/13 05:13:28;;;;;;;20.73;8.63;;;9.10;99.90;;;;;;5062470;28;20020;-77
2022/10/13 05:15:54;;;;;;;19.98;9.25;;;9.10;99.90;;;;;;5061883;28;20036;-78
2022/10/13 05:18:20;;;;;;;23.10;9.95;;;9.10;99.90;;;;;;5062038;28;20676;-77
2022/10/13 05:20:46;;;;;;;22.45;8.90;;;9.20;99.90;;;;;;5062210;28;20083;-77
2022/10/13 05:23:12;;;;;;;20.23;9.07;;;9.10;99.90;;;;;;5062152;28;20057;-76
2022/10/13 05:25:38;;;;;;;27.42;9.07;;;9.10;99.90;;;;;;5043339;28;20025;-78
2022/10/13 05:28:06;;;;;;;21.02;10.35;;;9.00;99.90;;;;;;5062142;28;20060;-77
2022/10/13 05:30:32;;;;;;;23.75;9.15;;;9.00;99.90;;;;;;5057251;28;20081;-78
2022/10/13 05:33:03;;;;;;;26.10;10.88;;;9.00;99.90;;;;;;5061544;28;20044;-77
2022/10/13 05:35:29;;;;;;;18.90;9.73;;;9.00;99.90;;;;;;5053330;28;20071;-77
2022/10/13 05:37:55;;;;;;;19.85;9.55;;;9.10;99.90;;;;;;5058674;28;20024;-76
2022/10/13 05:40:21;;;;;;;28.55;10.65;;;9.00;99.90;;;;;;5060962;28;20043;-77
2022/10/13 05:42:49;;;;;;;18.27;9.60;;;9.00;99.90;;;;;;5059349;28;20396;-77
2022/10/13 05:45:15;;;;;;;24.52;10.38;;;9.10;99.90;;;;;;5038494;28;20055;-77
2022/10/13 05:47:41;;;;;;;25.35;10.23;;;9.20;99.90;;;;;;5042475;28;20043;-77
2022/10/13 05:50:07;;;;;;;20.63;10.20;;;9.10;99.90;;;;;;5061982;28;20021;-76
2022/10/13 05:52:33;;;;;;;22.13;9.65;;;9.10;99.90;;;;;;5059413;28;20029;-77
2022/10/13 05:55:02;;;;;;;21.45;10.10;;;9.20;99.90;;;;;;5039346;28;20052;-76
2022/10/13 05:57:33;;;;;;;22.33;10.75;;;9.20;99.90;;;;;;5042511;28;20025;-76
2022/10/13 06:00:10;;;;;;;26.58;11.52;;;9.20;99.90;;;;;;5059696;28;20041;-77
2022/10/13 06:02:44;;;;;;;24.10;10.82;;;9.20;99.90;;;;;;5061224;28;20045;-78
2022/10/13 06:05:17;;;;;;;215.38;101.15;;;9.20;99.90;;;;;;5055842;28;20025;-77
2022/10/13 06:07:44;;;;;;;30.95;13.10;;;9.20;99.90;;;;;;5060656;28;20029;-77
2022/10/13 06:10:10;;;;;;;31.17;12.57;;;9.20;99.90;;;;;;5057196;28;20039;-77
2022/10/13 06:12:36;;;;;;;22.80;10.77;;;9.20;99.90;;;;;;5059677;28;20365;-77
2022/10/13 06:15:03;;;;;;;24.35;10.85;;;9.20;99.90;;;;;;5050329;28;20020;-78
2022/10/13 06:17:28;;;;;;;26.85;11.82;;;9.30;99.90;;;;;;5058634;28;20021;-79
2022/10/13 06:19:54;;;;;;;26.17;12.48;;;9.30;99.90;;;;;;5043984;28;20033;-76
2022/10/13 06:22:20;;;;;;;29.42;12.32;;;9.30;99.90;;;;;;5060008;28;20041;-76
2022/10/13 06:24:46;;;;;;;30.20;12.05;;;9.30;99.90;;;;;;5059733;28;20044;-77
2022/10/13 06:27:12;;;;;;;27.45;12.30;;;9.30;99.90;;;;;;5060076;28;20025;-76
2022/10/13 06:29:38;;;;;;;23.55;11.20;;;9.30;99.90;;;;;;5059715;28;20029;-77
2022/10/13 06:32:04;;;;;;;28.15;12.32;;;9.40;99.90;;;;;;5059754;28;20029;-77
2022/10/13 06:34:30;;;;;;;21.70;11.50;;;9.40;99.90;;;;;;5060445;28;20021;-76
2022/10/13 06:36:55;;;;;;;32.58;13.52;;;9.40;99.90;;;;;;5051274;28;20060;-77
2022/10/13 06:39:21;;;;;;;23.50;11.23;;;9.40;99.90;;;;;;5051263;28;20032;-77
2022/10/13 06:41:48;;;;;;;28.63;12.05;;;9.40;99.90;;;;;;5060423;28;20036;-76
2022/10/13 06:44:14;;;;;;;32.42;12.32;;;9.50;99.90;;;;;;5042304;28;20045;-77
2022/10/13 06:46:39;;;;;;;26.73;12.85;;;9.50;99.90;;;;;;5061121;28;20036;-77
2022/10/13 06:49:05;;;;;;;28.35;12.63;;;9.50;99.90;;;;;;5060893;28;20029;-77
2022/10/13 06:51:31;;;;;;;38.72;13.60;;;9.60;99.90;;;;;;5058536;28;20477;-76
2022/10/13 06:53:57;;;;;;;35.00;13.73;;;9.60;99.90;;;;;;5058492;28;20086;-77
2022/10/13 06:56:23;;;;;;;27.38;13.65;;;9.60;99.90;;;;;;5059956;28;21490;-77
2022/10/13 06:58:49;;;;;;;30.58;13.50;;;9.60;99.90;;;;;;5049621;28;20112;-76
2022/10/13 07:01:14;;;;;;;31.50;14.43;;;9.60;99.90;;;;;;5058046;28;20041;-77
2022/10/13 07:03:40;;;;;;;36.47;14.40;;;9.70;99.90;;;;;;5060069;28;20025;-77
2022/10/13 07:06:07;;;;;;;33.38;14.88;;;9.70;99.90;;;;;;5063823;28;20040;-77
2022/10/13 07:08:37;;;;;;;28.75;14.57;;;9.70;99.90;;;;;;5054736;28;20029;-78
2022/10/13 07:11:12;;;;;;;28.42;13.98;;;9.80;99.90;;;;;;5065114;28;20047;-77
2022/10/13 07:13:38;;;;;;;32.90;14.77;;;9.80;99.90;;;;;;5064541;28;20036;-78
2022/10/13 07:16:05;;;;;;;47.08;15.93;;;9.90;99.90;;;;;;5053798;28;20025;-75
2022/10/13 07:18:31;;;;;;;30.98;14.85;;;9.90;99.90;;;;;;5063806;28;20493;-76
2022/10/13 07:20:59;;;;;;;44.97;16.88;;;9.90;99.90;;;;;;5064488;28;20090;-77
2022/10/13 07:23:25;;;;;;;36.85;16.58;;;10.00;99.90;;;;;;5064149;28;20469;-75
2022/10/13 07:25:51;;;;;;;30.02;15.10;;;10.00;99.90;;;;;;5055722;28;20067;-76
2022/10/13 07:28:18;;;;;;;29.75;14.82;;;10.10;99.90;;;;;;5064323;28;20400;-76
2022/10/13 07:30:43;;;;;;;38.78;15.38;;;10.10;99.90;;;;;;5062132;28;20404;-77
2022/10/13 07:33:09;;;;;;;45.28;17.23;;;10.10;99.90;;;;;;5061923;28;20020;-78
2022/10/13 07:35:39;;;;;;;35.30;16.90;;;10.20;99.90;;;;;;5064385;28;20017;-77
2022/10/13 07:38:06;;;;;;;35.90;16.38;;;10.20;99.90;;;;;;5064192;28;20027;-78
2022/10/13 07:40:32;;;;;;;34.95;16.95;;;10.30;99.90;;;;;;5055275;28;20047;-76
2022/10/13 07:42:57;;;;;;;39.17;16.35;;;10.30;99.90;;;;;;5052955;28;20052;-76
2022/10/13 07:45:24;;;;;;;31.67;15.90;;;10.30;99.90;;;;;;5064018;28;21099;-77
2022/10/13 07:47:49;;;;;;;31.33;16.17;;;10.30;99.90;;;;;;5062661;28;20032;-76
2022/10/13 07:50:15;;;;;;;36.15;17.17;;;10.40;99.90;;;;;;5064070;28;20013;-76
2022/10/13 07:52:40;;;;;;;40.90;17.20;;;10.40;99.90;;;;;;5064191;28;20108;-76
2022/10/13 07:55:07;;;;;;;35.30;17.52;;;10.40;99.90;;;;;;5045239;28;20029;-77
2022/10/13 07:57:33;;;;;;;42.70;17.50;;;10.50;99.90;;;;;;5062474;28;20037;-77
2022/10/13 07:59:59;;;;;;;36.65;18.45;;;10.50;99.90;;;;;;5062331;28;20484;-77
2022/10/13 08:02:25;;;;;;;32.63;17.77;;;10.60;99.90;;;;;;5046321;28;20047;-78
2022/10/13 08:04:57;;;;;;;36.20;18.92;;;10.60;99.90;;;;;;5059755;28;20029;-77
2022/10/13 08:07:23;;;;;;;44.13;20.13;;;10.70;99.90;;;;;;5054105;28;20051;-77
2022/10/13 08:09:48;;;;;;;37.50;18.65;;;10.70;99.90;;;;;;5064297;28;20028;-74
2022/10/13 08:12:14;;;;;;;42.95;19.85;;;10.80;99.90;;;;;;5054189;28;20036;-79
2022/10/13 08:14:40;;;;;;;49.17;19.52;;;10.80;99.90;;;;;;5064196;28;20021;-75
2022/10/13 08:17:07;;;;;;;40.17;19.85;;;10.90;99.90;;;;;;5059150;28;20055;-76
2022/10/13 08:19:34;;;;;;;44.42;19.98;;;10.90;99.90;;;;;;5057656;28;20037;-75
2022/10/13 08:22:00;;;;;;;44.53;19.38;;;11.00;99.90;;;;;;5052839;28;20024;-77
2022/10/13 08:24:27;;;;;;;47.15;18.50;;;11.00;99.90;;;;;;5060705;28;20076;-76
2022/10/13 08:26:53;;;;;;;52.28;20.27;;;11.10;99.90;;;;;;5058428;28;20029;-76
2022/10/13 08:29:19;;;;;;;41.38;19.63;;;11.20;99.90;;;;;;5063103;28;20060;-76
2022/10/13 08:31:45;;;;;;;49.95;20.25;;;11.20;99.90;;;;;;5063342;28;20032;-75
2022/10/13 08:34:11;;;;;;;45.58;18.58;;;11.30;99.90;;;;;;5061665;28;20107;-77
2022/10/13 08:36:37;;;;;;;48.28;19.52;;;11.40;99.90;;;;;;5056525;28;20029;-76
2022/10/13 08:39:03;;;;;;;48.05;20.38;;;11.50;99.90;;;;;;5061890;28;20035;-76
2022/10/13 08:41:34;;;;;;;51.63;19.45;;;11.50;99.90;;;;;;5062518;28;20048;-75
2022/10/13 08:44:19;;;;;;;38.05;19.08;;;11.60;99.90;;;;;;5061507;28;20049;-77
2022/10/13 08:46:53;;;;;;;37.78;18.92;;;11.60;99.90;;;;;;5057709;28;20029;-76
2022/10/13 08:49:18;;;;;;;39.50;19.33;;;11.70;99.90;;;;;;5061151;28;20055;-75
2022/10/13 08:51:44;;;;;;;38.35;18.33;;;11.70;99.90;;;;;;5063163;28;21506;-75
2022/10/13 08:54:14;;;;;;;38.58;19.20;;;11.70;99.90;;;;;;5062748;28;20031;-76
2022/10/13 08:56:41;;;;;;;44.33;19.40;;;11.70;99.90;;;;;;5044509;28;20105;-76
2022/10/13 08:59:13;;;;;;;39.58;18.27;;;11.70;99.90;;;;;;5062345;28;20055;-76
2022/10/13 09:01:40;;;;;;;35.15;18.58;;;11.80;99.90;;;;;;5059649;28;20055;-75
2022/10/13 09:04:30;;;;;;;46.78;19.83;;;11.80;99.90;;;;;;5060302;28;20519;-77
2022/10/13 09:07:08;;;;;;;34.85;17.92;;;11.90;99.90;;;;;;5052491;28;20027;-76
2022/10/13 09:09:36;;;;;;;42.92;19.17;;;11.90;99.90;;;;;;5061521;28;20520;-74
2022/10/13 09:12:03;;;;;;;33.85;18.90;;;11.90;99.90;;;;;;5063025;28;20025;-76
2022/10/13 09:14:33;;;;;;;42.83;19.63;;;12.00;99.90;;;;;;5062340;28;20044;-75
2022/10/13 09:17:21;;;;;;;40.13;19.08;;;12.00;99.90;;;;;;5062597;28;20043;-76
2022/10/13 09:20:23;;;;;;;45.67;18.20;;;12.10;99.90;;;;;;5062022;28;20059;-75
2022/10/13 09:23:19;;;;;;;34.22;18.63;;;12.20;99.90;;;;;;5045682;28;20068;-74
2022/10/13 09:25:50;;;;;;;38.20;18.45;;;12.30;99.90;;;;;;5052544;28;20496;-73
2022/10/13 09:28:25;;;;;;;34.13;17.83;;;12.40;99.90;;;;;;5062299;28;20033;-75
2022/10/13 09:31:04;;;;;;;44.65;18.27;;;12.70;99.90;;;;;;5062726;28;20033;-76
2022/10/13 09:33:38;;;;;;;38.20;16.98;;;12.80;99.90;;;;;;5062026;28;20092;-76
2022/10/13 09:36:09;;;;;;;40.40;17.63;;;12.90;99.90;;;;;;5052357;28;20032;-76
2022/10/13 09:38:36;;;;;;;36.75;17.83;;;13.10;99.90;;;;;;5060416;28;20083;-75
2022/10/13 09:41:12;;;;;;;45.28;19.13;;;13.10;99.90;;;;;;5058972;28;20040;-79
2022/10/13 09:43:47;;;;;;;40.22;20.33;;;13.10;99.90;;;;;;5060413;28;20031;-77
2022/10/13 09:46:40;;;;;;;40.33;19.25;;;13.10;99.90;;;;;;5061228;28;20025;-78
2022/10/13 09:49:36;;;;;;;43.15;19.30;;;13.20;99.90;;;;;;5061693;28;20082;-74
2022/10/13 09:52:16;;;;;;;41.40;19.63;;;13.20;99.90;;;;;;5042314;28;20477;-77
2022/10/13 09:54:50;;;;;;;49.92;19.45;;;13.30;99.90;;;;;;5061205;28;20079;-76
2022/10/13 09:57:42;;;;;;;49.80;19.58;;;13.40;99.90;;;;;;5052421;28;20534;-77
2022/10/13 10:00:12;;;;;;;41.42;19.73;;;13.60;99.90;;;;;;5060054;28;20051;-75
2022/10/13 10:02:58;;;;;;;38.60;19.88;;;13.80;99.90;;;;;;5059441;28;20094;-77
2022/10/13 10:05:41;;;;;;;39.22;19.15;;;13.90;99.90;;;;;;5060631;28;20033;-74
2022/10/13 10:08:20;;;;;;;36.70;19.50;;;14.10;99.90;;;;;;5058844;28;20121;-76
2022/10/13 10:10:49;;;;;;;41.63;18.63;;;14.10;99.90;;;;;;5043803;28;20036;-74
2022/10/13 10:13:15;;;;;;;49.20;19.75;;;14.10;99.90;;;;;;5062047;28;20032;-73
2022/10/13 10:15:46;;;;;;;45.38;19.73;;;14.10;99.90;;;;;;5061319;28;20025;-77
2022/10/13 10:18:35;;;;;;;37.60;18.60;;;14.20;99.90;;;;;;5042821;28;20163;-73
2022/10/13 10:21:29;;;;;;;40.10;18.90;;;14.30;99.90;;;;;;5054506;28;20087;-74
2022/10/13 10:24:17;;;;;;;39.65;17.48;;;14.40;99.90;;;;;;5031113;28;20029;-72
2022/10/13 10:26:49;;;;;;;49.17;17.73;;;14.50;99.90;;;;;;5061537;28;20032;-77
2022/10/13 10:29:23;;;;;;;34.80;18.05;;;14.60;99.90;;;;;;5051528;28;20041;-75
2022/10/13 10:32:12;;;;;;;44.05;18.05;;;14.60;99.90;;;;;;5059392;28;20061;-75
2022/10/13 10:34:52;;;;;;;42.80;18.70;;;14.70;99.90;;;;;;5060437;28;20029;-74
2022/10/13 10:37:34;;;;;;;36.95;18.95;;;14.70;99.90;;;;;;5051445;28;20025;-74
2022/10/13 10:40:11;;;;;;;38.05;18.35;;;14.70;99.90;;;;;;5062408;28;20063;-73
2022/10/13 10:43:00;;;;;;;39.85;20.05;;;14.80;99.90;;;;;;5065210;28;20039;-75
2022/10/13 10:45:28;;;;;;;41.40;19.20;;;14.90;99.90;;;;;;5055983;28;20057;-78
2022/10/13 10:47:59;;;;;;;43.33;18.70;;;15.10;99.90;;;;;;5063692;28;20079;-77
2022/10/13 10:50:25;;;;;;;36.28;17.58;;;15.20;99.90;;;;;;5064553;28;20045;-79
2022/10/13 10:53:01;;;;;;;36.72;17.65;;;15.30;99.90;;;;;;5064823;28;20760;-74
2022/10/13 10:55:55;;;;;;;38.40;18.85;;;15.30;99.90;;;;;;5062769;28;20033;-76
2022/10/13 10:58:39;;;;;;;41.53;17.20;;;15.40;99.90;;;;;;5030707;28;20121;-72
2022/10/13 11:01:18;;;;;;;44.17;18.60;;;15.50;99.90;;;;;;5064572;28;20092;-73
2022/10/13 11:03:57;;;;;;;37.47;18.60;;;15.80;99.90;;;;;;5062396;28;20021;-75
2022/10/13 11:06:36;;;;;;;43.47;18.48;;;16.00;99.90;;;;;;5064411;28;20021;-79
2022/10/13 11:09:04;;;;;;;34.90;16.38;;;16.00;99.90;;;;;;5060941;28;20032;-74
2022/10/13 11:11:37;;;;;;;32.42;16.45;;;15.90;99.90;;;;;;5062826;28;20021;-74
2022/10/13 11:14:05;;;;;;;36.92;16.77;;;15.90;99.90;;;;;;5046799;28;20120;-74
2022/10/13 11:16:37;;;;;;;33.50;16.52;;;15.80;99.90;;;;;;5056878;28;20501;-75
2022/10/13 11:19:28;;;;;;;36.80;17.42;;;15.70;99.90;;;;;;5059472;28;20051;-75
2022/10/13 11:21:53;;;;;;;39.95;16.88;;;15.70;99.90;;;;;;5063738;28;20039;-75
2022/10/13 11:24:41;;;;;;;45.83;19.60;;;15.60;99.90;;;;;;5063762;28;20049;-74
2022/10/13 11:27:06;;;;;;;51.10;17.98;;;15.50;99.90;;;;;;5064148;28;20021;-73
2022/10/13 11:32:25;;;;;;;42.15;15.98;;;15.40;99.90;;;;;;5063513;28;20061;-79
2022/10/13 11:35:12;;;;;;;36.78;16.67;;;15.30;99.90;;;;;;5062337;28;20058;-78
2022/10/13 11:37:54;;;;;;;33.42;16.63;;;15.30;99.90;;;;;;5062350;28;20029;-75
2022/10/13 11:41:02;;;;;;;32.17;16.67;;;15.30;99.90;;;;;;5062523;28;20033;-77
2022/10/13 11:43:33;;;;;;;41.67;16.17;;;15.30;99.90;;;;;;5053439;28;20028;-77
2022/10/13 11:46:22;;;;;;;32.30;15.95;;;15.40;99.90;;;;;;5063262;28;20045;-76
2022/10/13 11:49:15;;;;;;;35.25;15.10;;;15.40;99.90;;;;;;5063454;28;20029;-73
2022/10/13 11:52:16;;;;;;;32.78;15.60;;;15.40;99.90;;;;;;5044287;28;20089;-76
2022/10/13 11:55:03;;;;;;;31.55;14.65;;;15.30;99.90;;;;;;5062310;28;20056;-78
2022/10/13 11:57:31;;;;;;;42.22;15.52;;;15.30;99.90;;;;;;5063449;28;20028;-77
2022/10/13 11:59:57;;;;;;;37.35;16.27;;;15.30;99.90;;;;;;5062302;28;20132;-79
2022/10/13 12:02:25;;;;;;;39.17;15.48;;;15.30;99.90;;;;;;5063129;28;20739;-79
2022/10/13 12:05:21;;;;;;;33.83;14.27;;;15.20;99.90;;;;;;5062901;28;20032;-78
2022/10/13 12:07:48;;;;;;;29.77;13.65;;;15.20;99.90;;;;;;5062002;28;20092;-75
2022/10/13 12:10:38;;;;;;;28.75;13.73;;;15.20;99.90;;;;;;5063313;28;20081;-79
2022/10/13 12:13:04;;;;;;;26.92;14.00;;;15.20;99.90;;;;;;5062440;28;20083;-78
2022/10/13 12:15:32;;;;;;;31.08;14.48;;;15.20;99.90;;;;;;5062563;28;20102;-77
2022/10/13 12:17:57;;;;;;;30.40;14.68;;;15.20;99.90;;;;;;5045180;28;20025;-78
2022/10/13 12:20:26;;;;;;;22.02;13.20;;;15.20;99.90;;;;;;5062793;28;20087;-76
2022/10/13 12:22:53;;;;;;;30.95;14.02;;;15.10;99.90;;;;;;5062246;28;20036;-78
2022/10/13 12:25:22;;;;;;;27.02;14.77;;;15.10;99.90;;;;;;5062185;28;20116;-79
2022/10/13 12:27:51;;;;;;;31.92;14.70;;;15.10;99.90;;;;;;5043582;28;20033;-76
2022/10/13 12:30:23;;;;;;;30.10;13.18;;;15.20;99.90;;;;;;5060651;28;20029;-78
2022/10/13 12:32:52;;;;;;;32.15;12.52;;;15.20;99.90;;;;;;5063031;28;20028;-74
2022/10/13 12:35:33;;;;;;;24.63;12.23;;;15.20;99.90;;;;;;5053820;28;20412;-76
2022/10/13 12:38:06;;;;;;;21.63;12.68;;;15.30;99.90;;;;;;5063598;28;20021;-76
2022/10/13 12:40:33;;;;;;;28.80;12.30;;;15.30;99.90;;;;;;5048514;28;20033;-77
2022/10/13 12:42:59;;;;;;;26.05;12.55;;;15.40;99.90;;;;;;5061516;28;20025;-78
2022/10/13 12:45:31;;;;;;;25.80;11.40;;;15.40;99.90;;;;;;5057303;28;20087;-77
2022/10/13 12:47:57;;;;;;;23.48;11.07;;;15.50;99.90;;;;;;5055713;28;20044;-77
2022/10/13 12:50:26;;;;;;;22.75;12.27;;;15.50;99.90;;;;;;5049871;28;21006;-74
2022/10/13 12:53:08;;;;;;;26.98;11.43;;;15.50;99.90;;;;;;5052457;28;20437;-74
2022/10/13 12:55:44;;;;;;;20.95;11.05;;;15.60;99.90;;;;;;5061400;28;21286;-76
2022/10/13 12:58:26;;;;;;;306.70;134.25;;;15.60;99.90;;;;;;5061499;28;20108;-76